This is the latest recevied weather packets stored in our database for station/object DK0KTL-4. If no packets are shown the sender has not sent any weather packets the latest 10 day(s).
| Time | Temp. | Humidity | Pressure | Rain* | Wind** | Luminosity | Snow |
|---|---|---|---|---|---|---|---|
| 1777564149 | 19.44° C | 35% | 1029.3 hPa | 0 mm | - | - | - |
| 1777563549 | 20° C | 35% | 1029.2 hPa | 0 mm | - | - | - |
| 1777563249 | 20° C | 34% | 1029.1 hPa | 0 mm | - | - | - |
| 1777560846 | 20° C | 34% | 1029.3 hPa | 0 mm | - | - | - |
| 1777560246 | 20° C | 32% | 1029.4 hPa | 0 mm | - | - | - |
| 1777559645 | 20° C | 32% | 1029.4 hPa | 0 mm | - | - | - |
| 1777559345 | 20° C | 32% | 1029.5 hPa | 0 mm | - | - | - |
| 1777553639 | 19.44° C | 31% | 1030.3 hPa | 0 mm | - | - | - |
| 1777553039 | 19.44° C | 32% | 1030.1 hPa | 0 mm | - | - | - |
| 1777552738 | 18.89° C | 29% | 1030.2 hPa | 0 mm | - | - | - |
| 1777551837 | 18.33° C | 29% | 1030.4 hPa | 0 mm | - | - | - |
| 1777551537 | 18.33° C | 29% | 1030.4 hPa | 0 mm | - | - | - |
| 1777548534 | 17.22° C | 31% | 1030.8 hPa | 0 mm | - | - | - |
| 1777546432 | 16.67° C | 29% | 1031 hPa | 0 mm | - | - | - |
| 1777545531 | 16.11° C | 32% | 1031 hPa | 0 mm | - | - | - |
| 1777538625 | 12.78° C | 38% | 1032.1 hPa | 0 mm | - | - | - |
| 1777538324 | 12.78° C | 36% | 1032.1 hPa | 0 mm | - | - | - |
| 1777538024 | 12.22° C | 36% | 1032.1 hPa | 0 mm | - | - | - |
| 1777537724 | 12.22° C | 38% | 1032 hPa | 0 mm | - | - | - |
| 1777537424 | 12.22° C | 38% | 1032.1 hPa | 0 mm | - | - | - |
| 1777533820 | 6.11° C | 54% | 1031.9 hPa | 0 mm | - | - | - |
| 1777518806 | -0.56° C | 78% | 1031.3 hPa | 0 mm | - | - | - |
| 1777517004 | -0.56° C | 77% | 1031.2 hPa | 0 mm | - | - | - |
| 1777516704 | -0.56° C | 78% | 1031.2 hPa | 0 mm | - | - | - |
| 1777516403 | -0.56° C | 78% | 1031.2 hPa | 0 mm | - | - | - |
* Rain latest hour (hover to see other rain measurements)
** Current wind speed in m/s (hover to see current wind gust speed)